Time;durP1;ratioP1;P1;durP2;ratioP2;P2;SDS_P1;SDS_P2;PMS_P1;PMS_P2;Temp;Humidity;BMP_temperature;BMP_pressure;BME280_temperature;BME280_humidity;BME280_pressure;Samples;Min_cycle;Max_cycle;Signal;HPM_P1;HPM_P2
2022/12/21 00:00:31;;;;;;;65.40;44.35;;;;;;;7.85;100.00;100752.56;10537788;28;20052;-64
2022/12/21 00:05:33;;;;;;;63.38;41.20;;;;;;;7.82;100.00;100747.44;10536993;28;20197;-64
2022/12/21 00:10:36;;;;;;;;;;;;;;;7.79;100.00;100744.94;10537589;28;20043;-65
2022/12/21 00:15:37;;;;;;;57.13;44.92;;;;;;;7.80;100.00;100738.88;10534053;28;20371;-64
2022/12/21 00:20:39;;;;;;;62.10;50.15;;;;;;;7.76;100.00;100742.47;10536821;28;20047;-64
2022/12/21 00:25:42;;;;;;;67.05;49.53;;;;;;;7.75;100.00;100745.94;10536604;28;20058;-64
2022/12/21 00:30:44;;;;;;;72.50;47.05;;;;;;;7.72;100.00;100742.56;10536395;28;20051;-64
2022/12/21 00:35:50;;;;;;;81.00;50.28;;;;;;;7.72;100.00;100742.56;10536087;28;20517;-64
2022/12/21 00:40:59;;;;;;;76.03;47.00;;;;;;;7.71;100.00;100746.06;10535876;28;20044;-64
2022/12/21 00:46:01;;;;;;;70.85;45.65;;;;;;;7.67;100.00;100749.63;10533727;28;20420;-64
2022/12/21 00:51:04;;;;;;;;;;;;;;;7.66;100.00;100747.94;10536193;28;20098;-64
2022/12/21 00:56:10;;;;;;;77.60;45.97;;;;;;;7.69;100.00;100757.38;10535636;28;19927;-64
2022/12/21 01:01:16;;;;;;;77.18;47.67;;;;;;;7.67;100.00;100754.81;10538983;28;20048;-64
2022/12/21 01:06:21;;;;;;;85.03;49.58;;;;;;;7.68;100.00;100760.88;10544660;28;20052;-64
2022/12/21 01:11:27;;;;;;;90.97;50.03;;;;;;;7.64;100.00;100765.34;10544767;28;20059;-64
2022/12/21 01:16:31;;;;;;;77.38;51.15;;;;;;;7.64;100.00;100765.34;10541404;28;20044;-63
2022/12/21 01:21:33;;;;;;;90.93;53.05;;;;;;;7.63;100.00;100774.00;10544017;28;20093;-64
2022/12/21 01:26:36;;;;;;;89.82;49.20;;;;;;;7.61;100.00;100765.44;10543185;28;20044;-64
2022/12/21 01:31:38;;;;;;;82.45;48.53;;;;;;;7.62;100.00;100761.09;10543586;28;20078;-65
2022/12/21 01:36:40;;;;;;;92.22;46.70;;;;;;;7.61;100.00;100775.81;10543003;28;20052;-64
2022/12/21 01:41:43;;;;;;;85.65;44.92;;;;;;;7.58;100.00;100775.91;10542682;28;20135;-64
2022/12/21 01:46:48;;;;;;;91.18;46.35;;;;;;;7.55;100.00;100776.84;10540028;28;20468;-64
2022/12/21 01:51:56;;;;;;;87.43;46.00;;;;;;;7.53;100.00;100783.81;10542635;28;20532;-64
2022/12/21 01:57:03;;;;;;;111.13;45.55;;;;;;;7.51;100.00;100777.84;10542110;28;20119;-64
2022/12/21 02:02:10;;;;;;;96.70;41.45;;;;;;;7.50;100.00;100773.56;10542207;28;20048;-64
2022/12/21 02:07:12;;;;;;;89.70;42.45;;;;;;;7.50;100.00;100777.91;10541615;28;20454;-64
2022/12/21 02:12:17;;;;;;;94.88;42.78;;;;;;;7.51;100.00;100766.59;10541567;28;20419;-64
2022/12/21 02:17:36;;;;;;;69.63;36.75;;;;;;;7.51;100.00;100764.88;10539068;28;20113;-64
2022/12/21 02:23:11;;;;;;;73.90;36.42;;;;;;;7.44;100.00;100769.41;10541066;28;20139;-64
2022/12/21 02:29:19;;;;;;;71.90;36.70;;;;;;;7.43;100.00;100761.66;10541217;28;20078;-64
2022/12/21 02:34:35;;;;;;;77.32;37.75;;;;;;;7.43;100.00;100761.66;10540689;28;20062;-64
2022/12/21 02:39:49;;;;;;;94.30;40.95;;;;;;;7.44;100.00;100768.53;10540970;28;20077;-64
2022/12/21 02:44:58;;;;;;;86.82;42.28;;;;;;;7.43;100.00;100766.84;10538171;28;20048;-64
2022/12/21 02:50:11;;;;;;;85.22;40.38;;;;;;;7.44;100.00;100761.63;10540223;28;20048;-64
2022/12/21 02:55:15;;;;;;;93.43;38.80;;;;;;;7.43;100.00;100759.06;10540040;28;20063;-64
2022/12/21 03:00:20;;;;;;;101.05;43.08;;;;;;;7.43;100.00;100756.47;10539668;28;20048;-65
2022/12/21 03:06:08;;;;;;;82.78;42.83;;;;;;;7.41;100.00;100761.69;10539688;28;20052;-65
2022/12/21 03:11:10;;;;;;;83.13;41.42;;;;;;;7.39;100.00;100752.25;10536859;28;20107;-64
2022/12/21 03:16:19;;;;;;;86.20;42.50;;;;;;;7.39;100.00;100747.06;10536704;28;20105;-64
2022/12/21 03:21:29;;;;;;;100.65;43.97;;;;;;;7.36;100.00;100740.22;10539117;28;20048;-65
2022/12/21 03:26:39;;;;;;;102.30;45.88;;;;;;;7.37;100.00;100741.91;10538122;28;20044;-65
2022/12/21 03:31:46;;;;;;;91.95;42.50;;;;;;;7.35;100.00;100730.72;10538784;28;20135;-65
2022/12/21 03:36:57;;;;;;;98.57;42.80;;;;;;;7.36;100.00;100735.03;10538162;28;20106;-65
2022/12/21 03:42:06;;;;;;;112.97;45.75;;;;;;;7.36;100.00;100753.22;10538276;28;20124;-65
2022/12/21 03:47:16;;;;;;;101.25;42.28;;;;;;;7.33;100.00;100750.69;10535538;28;20052;-66
2022/12/21 03:52:24;;;;;;;99.60;42.58;;;;;;;7.33;100.00;100756.72;10537968;28;20108;-66
2022/12/21 03:57:28;;;;;;;92.65;38.95;;;;;;;7.33;100.00;100729.94;10537911;28;20063;-65
2022/12/21 04:02:38;;;;;;;89.10;41.33;;;;;;;7.32;100.00;100748.97;10537350;28;20048;-65
2022/12/21 04:07:46;;;;;;;67.20;34.13;;;;;;;7.22;100.00;100741.47;10536932;28;20385;-64
2022/12/21 04:12:48;;;;;;;76.75;32.55;;;;;;;7.16;100.00;100736.50;10534432;28;20998;-66
2022/12/21 04:17:53;;;;;;;58.08;30.05;;;;;;;7.09;100.00;100732.38;10537081;28;20044;-65
2022/12/21 04:28:27;;;;;;;56.92;26.33;;;;;;;6.98;100.00;100735.25;10500130;28;20071;-65
2022/12/21 04:33:31;;;;;;;52.13;26.83;;;;;;;6.93;100.00;100727.63;10536299;28;20047;-64
2022/12/21 04:38:38;;;;;;;69.60;28.48;;;;;;;6.88;100.00;100734.69;10536104;28;20094;-65
2022/12/21 04:43:42;;;;;;;47.35;25.75;;;;;;;6.86;100.00;100720.91;10533448;28;20071;-65
2022/12/21 04:48:46;;;;;;;54.55;25.23;;;;;;;6.84;100.00;100707.13;10536509;28;20044;-64
2022/12/21 04:53:50;;;;;;;57.28;25.42;;;;;;;6.83;100.00;100719.25;10535713;28;20420;-65
2022/12/21 04:58:52;;;;;;;48.90;25.48;;;;;;;6.78;100.00;100718.53;10535850;28;20056;-65
2022/12/21 05:03:57;;;;;;;56.47;24.25;;;;;;;6.77;100.00;100716.00;10535331;28;20044;-65
2022/12/21 05:09:02;;;;;;;51.38;24.63;;;;;;;6.75;100.00;100717.78;10535981;28;20040;-65
2022/12/21 05:14:03;;;;;;;63.38;26.58;;;;;;;6.72;100.00;100728.22;10532941;28;20052;-65
2022/12/21 05:19:05;;;;;;;63.85;27.65;;;;;;;6.71;100.00;100719.63;10535847;28;20116;-65
2022/12/21 05:24:09;;;;;;;52.83;22.98;;;;;;;6.68;100.00;100720.53;10536210;28;20044;-65
2022/12/21 05:29:11;;;;;;;40.92;23.73;;;;;;;6.64;100.00;100715.50;10535573;28;20208;-65
2022/12/21 05:34:13;;;;;;;;;;;;;;;6.61;100.00;100715.56;10535604;28;20059;-64
2022/12/21 05:39:16;;;;;;;40.05;19.40;;;;;;;6.59;100.00;100710.44;10535356;28;19974;-64
2022/12/21 05:44:18;;;;;;;41.15;19.98;;;;;;;6.54;100.00;100709.72;10532885;28;20052;-64
2022/12/21 05:49:21;;;;;;;48.67;19.80;;;;;;;6.51;100.00;100721.03;10540905;28;20047;-64
2022/12/21 05:54:24;;;;;;;31.75;17.65;;;;;;;6.46;100.00;100711.66;10542250;28;20055;-65
2022/12/21 05:59:25;;;;;;;31.63;19.52;;;;;;;6.41;100.00;100707.47;10542403;28;20055;-65
2022/12/21 06:04:27;;;;;;;42.95;23.15;;;;;;;6.36;100.00;100706.72;10542000;28;20052;-65
2022/12/21 06:09:31;;;;;;;46.75;23.63;;;;;;;6.34;100.00;100702.47;10542187;28;20048;-64
2022/12/21 06:14:33;;;;;;;36.53;20.92;;;;;;;6.32;100.00;100707.69;10539276;28;20059;-64
2022/12/21 06:19:35;;;;;;;34.05;18.15;;;;;;;6.28;100.00;100703.47;10541603;28;20048;-65
2022/12/21 06:24:38;;;;;;;23.98;18.33;;;;;;;6.25;100.00;100690.59;10541040;28;20147;-65
2022/12/21 06:29:40;;;;;;;27.35;18.65;;;;;;;6.21;100.00;100709.72;10541181;28;20564;-65
2022/12/21 06:34:42;;;;;;;34.80;19.08;;;;;;;6.17;100.00;100707.19;10540456;28;20475;-65
2022/12/21 06:39:46;;;;;;;43.85;19.67;;;;;;;6.13;100.00;100700.41;10541524;28;20074;-65
2022/12/21 06:44:48;;;;;;;23.85;18.42;;;;;;;6.10;100.00;100700.50;10538313;28;20101;-65
2022/12/21 06:49:50;;;;;;;31.60;19.05;;;;;;;6.09;100.00;100701.38;10540819;28;20052;-66
2022/12/21 06:54:53;;;;;;;26.00;19.40;;;;;;;6.09;100.00;100709.13;10539744;28;20061;-65
2022/12/21 06:59:55;;;;;;;27.02;18.52;;;;;;;6.09;100.00;100714.31;10538658;28;20109;-66
2022/12/21 07:04:57;;;;;;;24.77;18.38;;;;;;;6.12;100.00;100728.97;10539283;28;20059;-66
2022/12/21 07:10:00;;;;;;;29.02;18.42;;;;;;;6.14;100.00;100729.75;10539726;28;20058;-65
2022/12/21 07:15:02;;;;;;;18.90;16.92;;;;;;;6.15;100.00;100724.53;10537256;28;20100;-65
2022/12/21 07:20:05;;;;;;;26.85;19.38;;;;;;;6.15;100.00;100727.13;10538843;28;20459;-65
2022/12/21 07:25:09;;;;;;;30.67;19.05;;;;;;;6.15;100.00;100729.72;10538550;28;20058;-65
2022/12/21 07:30:13;;;;;;;26.23;19.77;;;;;;;6.12;100.00;100732.38;10538430;28;20040;-65
2022/12/21 07:35:16;;;;;;;31.27;18.23;;;;;;;6.08;100.00;100738.53;10538054;28;20059;-66
2022/12/21 07:40:20;;;;;;;28.30;20.08;;;;;;;6.10;100.00;100756.63;10538009;28;20450;-66
2022/12/21 07:45:21;;;;;;;31.00;19.77;;;;;;;6.11;100.00;100766.97;10535396;28;20468;-65
2022/12/21 07:50:23;;;;;;;27.25;19.77;;;;;;;6.12;100.00;100771.25;10537848;28;20051;-65
2022/12/21 07:55:26;;;;;;;23.55;19.75;;;;;;;6.16;100.00;100782.41;10537622;28;20073;-65
2022/12/21 08:00:28;;;;;;;23.02;19.20;;;;;;;6.21;100.00;100784.88;10537284;28;20101;-66
2022/12/21 08:05:29;;;;;;;28.40;22.30;;;;;;;6.21;100.00;100784.88;10536902;28;20092;-66
2022/12/21 08:10:33;;;;;;;34.53;22.25;;;;;;;6.21;100.00;100779.69;10536581;28;20097;-67
2022/12/21 08:15:34;;;;;;;27.67;21.77;;;;;;;6.21;100.00;100766.72;10534609;28;20093;-66
2022/12/21 08:20:37;;;;;;;34.42;21.52;;;;;;;6.20;100.00;100773.66;10535227;28;20098;-67
2022/12/21 08:25:40;;;;;;;28.98;23.15;;;;;;;6.23;100.00;100788.28;10534675;28;20105;-67
2022/12/21 08:30:42;;;;;;;36.45;24.77;;;;;;;6.29;100.00;100783.78;10535080;28;20047;-66
2022/12/21 08:35:44;;;;;;;45.13;25.20;;;;;;;6.40;100.00;100780.91;10535064;28;20043;-66
2022/12/21 08:40:47;;;;;;;36.97;25.40;;;;;;;6.46;100.00;100779.06;10534936;28;20105;-66
2022/12/21 08:45:49;;;;;;;44.80;27.40;;;;;;;6.47;100.00;100786.81;10532192;28;20052;-67
2022/12/21 08:50:51;;;;;;;38.72;26.85;;;;;;;6.48;100.00;100782.47;10535335;28;20070;-66
2022/12/21 08:55:55;;;;;;;49.55;27.38;;;;;;;6.51;100.00;100782.38;10536369;28;20058;-66
2022/12/21 09:00:57;;;;;;;46.00;29.48;;;;;;;6.53;100.00;100790.97;10536084;28;20098;-67
2022/12/21 09:06:02;;;;;;;58.38;32.47;;;;;;;6.58;100.00;100794.31;10535703;28;20048;-66
2022/12/21 09:11:09;;;;;;;51.85;32.63;;;;;;;6.61;100.00;100794.22;10535563;28;20555;-66
2022/12/21 09:16:14;;;;;;;66.63;33.78;;;;;;;6.68;100.00;100785.38;10532859;28;20423;-66
2022/12/21 09:21:22;;;;;;;61.08;40.42;;;;;;;6.76;100.00;100781.72;10532731;28;20043;-65
2022/12/21 09:26:26;;;;;;;67.07;35.97;;;;;;;6.87;100.00;100778.84;10544746;28;20048;-66
2022/12/21 09:31:28;;;;;;;58.85;31.83;;;;;;;7.00;100.00;100781.94;10542767;28;20063;-66
2022/12/21 09:36:32;;;;;;;67.75;37.60;;;;;;;7.04;100.00;100780.94;10543625;28;20130;-66
2022/12/21 09:42:08;;;;;;;65.70;33.15;;;;;;;7.22;100.00;100790.78;10543474;28;20044;-66
2022/12/21 09:47:26;;;;;;;64.95;32.72;;;;;;;7.32;100.00;100796.56;10540542;28;20495;-66
2022/12/21 09:52:38;;;;;;;65.90;32.83;;;;;;;7.34;100.00;100804.31;10542311;28;20415;-65
2022/12/21 09:57:41;;;;;;;55.75;32.50;;;;;;;7.26;100.00;100801.97;10542711;28;20083;-66
2022/12/21 10:03:08;;;;;;;46.22;28.75;;;;;;;7.31;100.00;100799.22;10541960;28;20056;-66
2022/12/21 10:08:36;;;;;;;48.30;31.55;;;;;;;7.25;100.00;100809.78;10542649;28;20090;-65
2022/12/21 10:13:48;;;;;;;54.75;29.80;;;;;;;7.30;100.00;100802.72;10522173;28;20518;-66
2022/12/21 10:19:02;;;;;;;51.40;30.65;;;;;;;7.31;100.00;100800.06;10506581;28;20048;-68
2022/12/21 10:24:19;;;;;;;45.83;33.33;;;;;;;7.26;100.00;100817.53;10536788;28;20044;-65
2022/12/21 10:29:35;;;;;;;36.22;27.75;;;;;;;7.24;100.00;100808.06;10542451;28;20062;-67
2022/12/21 10:34:40;;;;;;;43.40;26.55;;;;;;;7.32;100.00;100806.09;10541074;28;20113;-67
2022/12/21 10:39:43;;;;;;;38.50;28.45;;;;;;;7.40;100.00;100795.50;10540863;28;20473;-67
2022/12/21 10:44:50;;;;;;;32.63;26.45;;;;;;;7.53;100.00;100783.81;10538262;28;20047;-66
2022/12/21 10:50:06;;;;;;;46.25;29.85;;;;;;;7.45;100.00;100776.28;10540810;28;20106;-66
2022/12/21 10:55:32;;;;;;;36.20;24.73;;;;;;;7.49;100.00;100764.06;10540341;28;20351;-66
2022/12/21 11:00:39;;;;;;;37.03;25.35;;;;;;;7.45;100.00;100765.03;10540197;28;20052;-66
2022/12/21 11:05:43;;;;;;;30.48;25.65;;;;;;;7.39;100.00;100760.06;10539879;28;20060;-65
2022/12/21 11:10:48;;;;;;;34.70;26.08;;;;;;;7.46;100.00;100757.22;10539860;28;20108;-66
2022/12/21 11:16:02;;;;;;;44.42;35.22;;;;;;;7.36;100.00;100766.19;10537110;28;20048;-64
2022/12/21 11:21:12;;;;;;;28.10;23.88;;;;;;;7.47;100.00;100755.47;10537298;28;20191;-67
2022/12/21 11:26:16;;;;;;;41.38;32.05;;;;;;;7.43;100.00;100764.25;10538911;28;20506;-64
2022/12/21 11:31:19;;;;;;;36.95;23.30;;;;;;;7.58;100.00;100755.13;10539106;28;20097;-64
2022/12/21 11:36:22;;;;;;;30.48;20.85;;;;;;;7.53;100.00;100757.84;10538797;28;20181;-68
2022/12/21 11:41:29;;;;;;;33.75;19.92;;;;;;;7.59;100.00;100762.88;10538674;28;20044;-67
2022/12/21 11:46:53;;;;;;;27.33;18.83;;;;;;;7.57;100.00;100749.06;10535735;28;20048;-68
2022/12/21 11:52:07;;;;;;;34.15;18.30;;;;;;;7.58;100.00;100750.78;10538088;28;20460;-66
2022/12/21 11:57:26;;;;;;;25.80;15.63;;;;;;;7.65;100.00;100745.38;10537102;28;20052;-66
2022/12/21 12:03:10;;;;;;;29.13;26.20;;;;;;;7.56;100.00;100738.75;10537485;28;20052;-65
2022/12/21 12:08:40;;;;;;;24.45;14.18;;;;;;;7.55;100.00;100737.91;10538213;28;20074;-67
2022/12/21 12:14:27;;;;;;;25.25;14.23;;;;;;;7.53;100.00;100733.66;10534356;28;20048;-67
2022/12/21 12:19:44;;;;;;;21.58;15.45;;;;;;;7.63;100.00;100727.25;10525970;28;20048;-65
2022/12/21 12:25:34;;;;;;;23.17;15.95;;;;;;;7.68;100.00;100719.31;10536045;28;20468;-67
2022/12/21 12:30:59;;;;;;;20.85;13.77;;;;;;;7.75;100.00;100710.44;10535053;28;20113;-66
2022/12/21 12:36:26;;;;;;;25.25;17.10;;;;;;;7.75;100.00;100709.56;10536800;28;20052;-66
2022/12/21 12:41:39;;;;;;;24.58;13.02;;;;;;;7.71;100.00;100698.44;10536315;28;20044;-65
2022/12/21 12:46:59;;;;;;;18.30;13.77;;;;;;;7.66;100.00;100689.97;10533641;28;20052;-66
2022/12/21 12:52:19;;;;;;;15.07;13.02;;;;;;;7.60;100.00;100691.03;10536502;28;20112;-66
2022/12/21 12:57:33;;;;;;;26.25;14.70;;;;;;;7.70;100.00;100688.97;10539254;28;20062;-66
2022/12/21 13:02:45;;;;;;;18.77;16.90;;;;;;;7.73;100.00;100686.25;10544308;28;20461;-67
2022/12/21 13:08:01;;;;;;;18.92;13.13;;;;;;;7.68;100.00;100688.16;10544968;28;20059;-66
2022/12/21 13:13:18;;;;;;;19.80;13.40;;;;;;;7.63;100.00;100690.91;10542386;28;20425;-65
2022/12/21 13:18:27;;;;;;;18.90;13.45;;;;;;;7.60;100.00;100691.84;10546254;28;20040;-66
2022/12/21 13:23:41;;;;;;;19.02;14.43;;;;;;;7.57;100.00;100670.34;10545785;28;20052;-68
2022/12/21 13:28:55;;;;;;;19.95;13.88;;;;;;;7.54;100.00;100666.09;10537450;28;20052;-66
2022/12/21 13:34:02;;;;;;;21.45;19.27;;;;;;;7.55;100.00;100659.13;10545503;28;20040;-65
2022/12/21 13:39:17;;;;;;;14.20;13.10;;;;;;;7.56;100.00;100653.06;10544565;28;20044;-66
2022/12/21 13:44:31;;;;;;;19.10;14.18;;;;;;;7.53;100.00;100647.97;10542152;28;20544;-66
2022/12/21 13:50:06;;;;;;;14.55;13.05;;;;;;;7.47;100.00;100662.00;10544472;28;20093;-67
2022/12/21 13:55:35;;;;;;;14.40;11.63;;;;;;;7.39;100.00;100672.59;10544183;28;20068;-65
2022/12/21 14:00:40;;;;;;;14.27;11.75;;;;;;;7.32;100.00;100681.47;10543827;28;20439;-67
2022/12/21 14:05:55;;;;;;;12.30;11.32;;;;;;;7.28;100.00;100680.75;10543798;28;20047;-65
2022/12/21 14:11:22;;;;;;;13.07;11.30;;;;;;;7.30;100.00;100673.78;10543087;28;20105;-65
2022/12/21 14:16:29;;;;;;;17.58;10.43;;;;;;;7.27;100.00;100673.00;10541094;28;20126;-64
2022/12/21 14:21:34;;;;;;;18.73;10.57;;;;;;;7.24;100.00;100667.91;10542363;28;20553;-65
2022/12/21 14:26:43;;;;;;;13.32;10.55;;;;;;;7.22;100.00;100653.22;10542123;28;20112;-65
2022/12/21 14:31:57;;;;;;;13.45;11.65;;;;;;;7.09;100.00;100649.34;10542401;28;20056;-67
2022/12/21 14:37:26;;;;;;;16.52;15.00;;;;;;;7.09;100.00;100644.16;10543101;28;20068;-66
2022/12/21 14:42:48;;;;;;;12.75;11.45;;;;;;;7.07;100.00;100640.72;10542425;28;20044;-64
2022/12/21 14:48:38;;;;;;;12.32;10.75;;;;;;;6.95;100.00;100642.81;10542254;28;20591;-64
2022/12/21 14:54:00;;;;;;;13.82;11.43;;;;;;;6.82;100.00;100625.94;10540364;28;20048;-64
2022/12/21 14:59:07;;;;;;;15.88;12.90;;;;;;;6.76;100.00;100620.91;10540170;28;20063;-63
2022/12/21 15:04:26;;;;;;;14.73;13.50;;;;;;;6.68;100.00;100608.19;10539508;28;20113;-64
2022/12/21 15:09:32;;;;;;;20.00;14.50;;;;;;;6.65;100.00;100603.94;10539465;28;20055;-63
2022/12/21 15:14:41;;;;;;;16.98;14.20;;;;;;;6.66;100.00;100608.22;10536857;28;20549;-64
2022/12/21 15:19:56;;;;;;;17.55;14.93;;;;;;;6.67;100.00;100599.53;10538200;28;20052;-64
2022/12/21 15:25:06;;;;;;;16.75;13.93;;;;;;;6.67;100.00;100596.94;10538824;28;20118;-64
2022/12/21 15:30:23;;;;;;;15.90;14.35;;;;;;;6.70;100.00;100602.06;10538622;28;20113;-64
2022/12/21 15:35:35;;;;;;;16.83;15.15;;;;;;;6.70;100.00;100585.63;10538712;28;20155;-64
2022/12/21 15:40:38;;;;;;;19.95;17.15;;;;;;;6.70;100.00;100568.34;10538585;28;20446;-64
2022/12/21 15:45:51;;;;;;;18.48;15.25;;;;;;;6.68;100.00;100577.91;10535563;28;20070;-63
2022/12/21 15:50:57;;;;;;;17.90;15.95;;;;;;;6.69;100.00;100568.38;10537782;28;20056;-63
2022/12/21 15:56:00;;;;;;;17.50;15.77;;;;;;;6.72;100.00;100554.47;10538119;28;20048;-64
2022/12/21 16:01:06;;;;;;;;;;;;;;;6.73;100.00;100558.75;10538545;28;20047;-63
2022/12/21 16:06:15;;;;;;;16.23;13.90;;;;;;;6.75;100.00;100567.34;10537156;28;19981;-65
2022/12/21 16:11:28;;;;;;;18.77;17.20;;;;;;;6.77;100.00;100560.38;10537283;28;20097;-64
2022/12/21 16:16:35;;;;;;;20.42;18.52;;;;;;;6.78;100.00;100562.06;10534545;28;20059;-64
2022/12/21 16:21:36;;;;;;;21.17;19.23;;;;;;;6.79;100.00;100555.97;10537519;28;20100;-64
2022/12/21 16:26:38;;;;;;;23.25;21.75;;;;;;;6.81;100.00;100549.00;10536677;28;20056;-66
2022/12/21 16:31:45;;;;;;;18.52;16.88;;;;;;;6.89;100.00;100548.75;10536284;28;20198;-64
2022/12/21 16:36:47;;;;;;;19.67;18.08;;;;;;;6.87;100.00;100545.38;10536220;28;20112;-65
2022/12/21 16:41:51;;;;;;;19.98;17.50;;;;;;;6.90;100.00;100543.53;10537004;28;20426;-63
2022/12/21 16:47:16;;;;;;;19.67;17.70;;;;;;;6.89;100.00;100547.03;10533733;28;20047;-64
2022/12/21 16:52:47;;;;;;;17.95;16.35;;;;;;;6.87;100.00;100538.44;10536415;28;20054;-65
2022/12/21 16:57:53;;;;;;;17.08;15.57;;;;;;;6.86;100.00;100534.16;10529009;28;20496;-66
2022/12/21 17:03:02;;;;;;;16.63;15.00;;;;;;;6.85;100.00;100522.06;10535413;28;20056;-63
2022/12/21 17:08:27;;;;;;;19.02;17.05;;;;;;;6.83;100.00;100519.53;10535934;28;20048;-63
2022/12/21 17:13:31;;;;;;;19.23;17.17;;;;;;;6.80;100.00;100513.56;10532957;28;20111;-64
2022/12/21 17:18:49;;;;;;;21.17;19.20;;;;;;;6.76;100.00;100511.97;10534277;28;20040;-65
2022/12/21 17:23:54;;;;;;;21.30;17.30;;;;;;;6.72;100.00;100498.28;10533805;28;20070;-65
2022/12/21 17:28:56;;;;;;;18.98;16.98;;;;;;;6.72;100.00;100484.44;10534185;28;20056;-65
2022/12/21 17:33:59;;;;;;;18.50;16.80;;;;;;;6.70;100.00;100456.81;10534109;28;20055;-66
2022/12/21 17:39:14;;;;;;;26.23;24.13;;;;;;;6.69;100.00;100418.81;10533609;28;20048;-65
2022/12/21 17:44:16;;;;;;;22.02;20.40;;;;;;;6.72;100.00;100414.41;10535674;28;20075;-66
2022/12/21 17:49:19;;;;;;;19.35;17.48;;;;;;;6.75;100.00;100455.81;10541620;28;20531;-66
2022/12/21 17:54:23;;;;;;;18.42;16.80;;;;;;;6.74;100.00;100467.94;10541511;28;20048;-67
2022/12/21 17:59:25;;;;;;;17.90;16.48;;;;;;;6.77;100.00;100467.00;10541824;28;20048;-65
2022/12/21 18:04:28;;;;;;;31.40;28.63;;;;;;;6.81;100.00;100468.59;10540354;28;20052;-68
2022/12/21 18:09:29;;;;;;;20.60;18.90;;;;;;;6.87;100.00;100458.00;10540579;28;20048;-65
2022/12/21 18:14:31;;;;;;;21.27;19.27;;;;;;;6.88;100.00;100458.88;10538055;28;20050;-65
2022/12/21 18:19:35;;;;;;;20.35;18.65;;;;;;;6.92;100.00;100455.28;10540723;28;20111;-65
2022/12/21 18:24:38;;;;;;;20.85;18.63;;;;;;;6.88;100.00;100444.13;10540036;28;20074;-65
2022/12/21 18:29:40;;;;;;;21.30;19.42;;;;;;;6.92;100.00;100453.50;10539423;28;20059;-65
2022/12/21 18:34:44;;;;;;;21.88;19.80;;;;;;;6.94;100.00;100438.75;10540355;28;20055;-66
2022/12/21 18:39:46;;;;;;;25.55;23.15;;;;;;;7.00;100.00;100427.31;10539278;28;20491;-66
2022/12/21 18:44:48;;;;;;;30.17;27.95;;;;;;;7.08;100.00;100419.25;10536539;28;20044;-65
2022/12/21 18:49:51;;;;;;;25.38;22.65;;;;;;;7.12;100.00;100410.47;10539324;28;20052;-65
2022/12/21 18:54:53;;;;;;;23.52;21.90;;;;;;;7.13;100.00;100409.59;10537813;28;20048;-65
2022/12/21 18:59:54;;;;;;;27.83;19.55;;;;;;;7.15;100.00;100402.56;10539290;28;20048;-65
2022/12/21 19:05:02;;;;;;;25.00;22.98;;;;;;;7.14;100.00;100405.22;10537963;28;20492;-65
2022/12/21 19:10:08;;;;;;;22.80;20.58;;;;;;;7.13;100.00;100404.41;10538315;28;20060;-65
2022/12/21 19:15:11;;;;;;;18.83;17.45;;;;;;;7.17;100.00;100405.13;10535487;28;20104;-64
2022/12/21 19:20:23;;;;;;;20.95;19.40;;;;;;;7.18;100.00;100389.50;10538175;28;20083;-66
2022/12/21 19:25:26;;;;;;;23.00;20.70;;;;;;;7.22;100.00;100385.88;10537392;28;20044;-64
2022/12/21 19:30:28;;;;;;;22.17;20.13;;;;;;;7.25;100.00;100378.91;10537327;28;20051;-65
2022/12/21 19:35:35;;;;;;;21.38;19.67;;;;;;;7.27;100.00;100375.34;10536875;28;20477;-65
2022/12/21 19:40:39;;;;;;;22.13;20.40;;;;;;;7.31;100.00;100373.47;10536937;28;20044;-65
2022/12/21 19:45:41;;;;;;;20.67;18.98;;;;;;;7.30;100.00;100377.84;10534050;28;20070;-64
2022/12/21 19:50:44;;;;;;;21.63;19.92;;;;;;;7.32;100.00;100369.97;10536604;28;20044;-64
2022/12/21 19:55:46;;;;;;;24.73;22.75;;;;;;;7.34;100.00;100363.00;10537644;28;20557;-65
2022/12/21 20:00:48;;;;;;;22.42;20.33;;;;;;;7.33;100.00;100356.94;10531405;28;20108;-65
2022/12/21 20:05:51;;;;;;;27.15;24.75;;;;;;;7.36;100.00;100349.97;10537393;28;20091;-67
2022/12/21 20:10:56;;;;;;;23.58;21.38;;;;;;;7.38;100.00;100338.59;10537323;28;20071;-66
2022/12/21 20:15:58;;;;;;;32.38;29.58;;;;;;;7.41;100.00;100333.31;10534922;28;20062;-66
2022/12/21 20:21:02;;;;;;;25.85;23.48;;;;;;;7.44;100.00;100335.81;10536932;28;20052;-67
2022/12/21 20:26:04;;;;;;;24.95;22.25;;;;;;;7.45;100.00;100334.88;10536912;28;20076;-65
2022/12/21 20:31:05;;;;;;;27.15;24.55;;;;;;;7.47;100.00;100327.88;10536634;28;20051;-67
2022/12/21 20:36:26;;;;;;;26.38;23.25;;;;;;;7.52;100.00;100316.50;10536507;28;20058;-65
2022/12/21 20:43:42;;;;;;;22.73;20.88;;;;;;;7.53;100.00;100315.56;10535694;28;20164;-66
2022/12/21 20:46:51;;;;;;;25.50;21.27;;;;;;;7.52;100.00;100313.91;10533046;28;20531;-65
2022/12/21 20:51:54;;;;;;;27.77;25.17;;;;;;;7.55;100.00;100311.16;10535613;28;20048;-66
2022/12/21 20:56:55;;;;;;;24.77;22.60;;;;;;;7.57;100.00;100298.97;10535383;28;20040;-66
2022/12/21 21:01:57;;;;;;;24.60;22.27;;;;;;;7.59;100.00;100304.94;10535110;28;20055;-65
2022/12/21 21:07:20;;;;;;;25.90;23.38;;;;;;;7.62;100.00;100296.22;10536083;28;20048;-65
2022/12/21 21:12:23;;;;;;;28.92;23.27;;;;;;;7.63;100.00;100301.31;10535258;28;20410;-65
2022/12/21 21:17:30;;;;;;;30.25;27.85;;;;;;;7.65;100.00;100294.31;10535335;28;20072;-66
2022/12/21 21:27:58;;;;;;;24.65;22.38;;;;;;;7.64;100.00;100292.63;10543523;28;20052;-66
2022/12/21 21:32:59;;;;;;;25.38;22.92;;;;;;;7.62;100.00;100283.22;10543777;28;20094;-65
2022/12/21 21:43:29;;;;;;;28.88;26.05;;;;;;;7.54;100.00;100270.53;10540489;28;20067;-65
2022/12/21 21:48:31;;;;;;;20.45;18.35;;;;;;;7.50;100.00;100275.00;10543001;28;20360;-65
2022/12/21 21:53:34;;;;;;;20.90;18.85;;;;;;;7.52;100.00;100267.97;10542672;28;20492;-65
2022/12/21 21:58:35;;;;;;;20.80;18.88;;;;;;;7.56;100.00;100263.53;10542377;28;20453;-66
2022/12/21 22:03:39;;;;;;;21.95;19.88;;;;;;;7.57;100.00;100254.81;10542155;28;20086;-66
2022/12/21 22:08:42;;;;;;;21.15;19.00;;;;;;;7.53;100.00;100248.88;10541626;28;20494;-65
2022/12/21 22:13:44;;;;;;;22.80;20.38;;;;;;;7.46;100.00;100237.91;10540295;28;20105;-66
2022/12/21 22:18:46;;;;;;;21.38;19.33;;;;;;;7.39;100.00;100233.84;10542049;28;20106;-66
2022/12/21 22:45:48;;;;;;;22.00;20.17;;;;;;;7.58;100.00;100209.78;10538226;28;20048;-66
2022/12/21 22:50:58;;;;;;;22.85;20.73;;;;;;;7.60;100.00;100203.59;10540158;28;20055;-66
2022/12/21 22:56:02;;;;;;;26.35;22.67;;;;;;;7.66;100.00;100197.31;10540362;28;20048;-66
2022/12/21 23:01:04;;;;;;;25.73;23.20;;;;;;;7.67;100.00;100198.19;10539785;28;20181;-66
2022/12/21 23:06:10;;;;;;;22.23;20.33;;;;;;;7.68;100.00;100185.13;10539717;28;20090;-66
2022/12/21 23:11:27;;;;;;;22.40;20.25;;;;;;;7.73;100.00;100182.31;10539702;28;20059;-66
2022/12/21 23:16:30;;;;;;;24.55;22.75;;;;;;;7.72;100.00;100173.69;10537494;28;20109;-65
2022/12/21 23:43:33;;;;;;;21.17;19.10;;;;;;;7.82;100.00;100160.31;10535463;28;20385;-64
